createdAt,value
2019-04-14T00:02:23.225Z,95.70
2019-04-14T00:04:52.994Z,95.60
2019-04-14T00:07:23.063Z,95.50
2019-04-14T00:09:52.062Z,96.30
2019-04-14T00:12:20.884Z,96.60
2019-04-14T00:14:49.445Z,96.10
2019-04-14T00:17:17.976Z,95.30
2019-04-14T00:19:47.721Z,94.90
2019-04-14T00:22:16.562Z,94.50
2019-04-14T00:24:45.224Z,95.00
2019-04-14T00:27:14.900Z,94.90
2019-04-14T00:29:43.645Z,94.90
2019-04-14T00:32:12.464Z,94.80
2019-04-14T00:34:44.117Z,95.40
2019-04-14T00:37:14.507Z,96.00
2019-04-14T00:39:47.493Z,95.10
2019-04-14T00:42:17.777Z,95.60
2019-04-14T00:44:49.586Z,96.60
2019-04-14T00:47:36.555Z,95.90
2019-04-14T00:50:06.490Z,95.20
2019-04-14T00:52:35.176Z,95.40
2019-04-14T00:55:23.096Z,95.00
2019-04-14T00:57:50.920Z,95.00
2019-04-14T01:00:20.735Z,94.80
2019-04-14T01:02:51.482Z,94.80
2019-04-14T01:05:21.668Z,94.90
2019-04-14T01:07:50.310Z,94.90
2019-04-14T01:10:39.749Z,95.90
2019-04-14T01:13:11.050Z,95.10
2019-04-14T01:15:48.107Z,96.00
2019-04-14T01:18:09.971Z,96.00
2019-04-14T01:20:38.734Z,96.10
2019-04-14T01:23:08.357Z,95.80
2019-04-14T01:25:37.180Z,96.00
2019-04-14T01:28:07.254Z,96.50
2019-04-14T01:30:37.216Z,95.90
2019-04-14T01:33:06.123Z,95.70
2019-04-14T01:35:35.660Z,94.90
2019-04-14T01:38:25.548Z,95.30
2019-04-14T01:40:55.187Z,95.60
2019-04-14T01:43:23.895Z,96.10
2019-04-14T01:46:03.453Z,95.60
2019-04-14T01:48:23.582Z,96.40
2019-04-14T01:59:09.507Z,94.40
2019-04-14T02:01:39.734Z,94.50
2019-04-14T02:04:09.434Z,94.60
2019-04-14T02:06:39.780Z,94.90
2019-04-14T02:09:12.075Z,94.90
2019-04-14T02:11:42.259Z,94.30
2019-04-14T02:14:12.486Z,94.60
2019-04-14T02:16:48.235Z,94.60
2019-04-14T02:19:11.532Z,94.00
2019-04-14T02:21:41.262Z,94.10
2019-04-14T02:24:11.262Z,94.10
2019-04-14T02:26:43.848Z,93.90
2019-04-14T02:29:12.551Z,95.40
2019-04-14T02:32:09.883Z,95.30
2019-04-14T02:37:12.427Z,95.20
2019-04-14T02:39:41.552Z,95.90
2019-04-14T02:42:20.757Z,96.50
2019-04-14T02:44:51.907Z,96.10
2019-04-14T02:47:26.986Z,95.70
2019-04-14T02:52:14.366Z,95.30
2019-04-14T02:54:51.824Z,96.00
2019-04-14T02:57:17.533Z,95.40
2019-04-14T03:04:51.049Z,95.40
2019-04-14T03:07:21.922Z,95.40
2019-04-14T03:09:49.608Z,95.10
2019-04-14T03:12:16.733Z,95.20
2019-04-14T03:14:53.563Z,95.10
2019-04-14T03:20:11.428Z,95.40
2019-04-14T03:24:50.501Z,96.40
2019-04-14T03:30:36.425Z,95.90
2019-04-14T03:37:59.417Z,95.80
2019-04-14T03:40:19.778Z,96.10
2019-04-14T03:42:55.651Z,95.70
2019-04-14T03:48:00.605Z,94.80
2019-04-14T03:50:16.075Z,95.10
2019-04-14T03:53:05.884Z,94.90
2019-04-14T03:55:05.904Z,95.00
2019-04-14T03:57:23.639Z,95.10
2019-04-14T03:59:52.320Z,95.00
2019-04-14T04:02:20.961Z,95.00
2019-04-14T04:04:49.653Z,95.10
2019-04-14T04:07:21.413Z,94.80
2019-04-14T04:09:51.905Z,94.90
2019-04-14T04:12:20.958Z,94.50
2019-04-14T04:14:49.606Z,94.50
2019-04-14T04:17:29.780Z,94.40
2019-04-14T04:20:00.531Z,93.90
2019-04-14T04:22:43.428Z,93.60
2019-04-14T04:25:13.896Z,93.40
2019-04-14T04:27:48.290Z,93.50
2019-04-14T04:30:18.753Z,93.70
2019-04-14T04:33:08.724Z,93.80
2019-04-14T04:35:39.335Z,93.70
2019-04-14T04:38:09.891Z,93.80
2019-04-14T04:40:39.737Z,93.40
2019-04-14T04:43:08.399Z,93.40
2019-04-14T04:45:37.351Z,94.10
2019-04-14T04:48:06.687Z,94.60
2019-04-14T04:50:36.748Z,94.80
2019-04-14T04:53:06.850Z,95.30
2019-04-14T04:55:35.648Z,95.40
2019-04-14T04:58:05.538Z,95.90
2019-04-14T05:00:35.267Z,95.80
2019-04-14T05:03:04.285Z,95.10
2019-04-14T05:06:13.367Z,94.20
2019-04-14T05:08:52.963Z,93.90
2019-04-14T05:11:25.792Z,93.80
2019-04-14T05:13:56.109Z,93.20
2019-04-14T05:16:25.915Z,93.10
2019-04-14T05:18:55.197Z,91.90
2019-04-14T05:21:43.331Z,90.70
2019-04-14T05:24:11.443Z,90.20
2019-04-14T05:26:41.650Z,89.30
2019-04-14T05:29:10.452Z,87.90
2019-04-14T05:31:38.995Z,86.10
2019-04-14T05:34:08.579Z,84.60
2019-04-14T05:36:37.321Z,84.40
2019-04-14T05:39:06.864Z,85.30
2019-04-14T05:41:35.577Z,83.90
2019-04-14T05:44:05.268Z,84.10
2019-04-14T05:46:34.469Z,83.10
2019-04-14T05:49:04.306Z,82.40
2019-04-14T05:51:32.913Z,81.90
2019-04-14T05:54:01.488Z,81.60
2019-04-14T05:56:30.025Z,81.60
2019-04-14T05:59:00.044Z,81.70
2019-04-14T06:01:29.618Z,81.00
2019-04-14T06:03:58.243Z,79.70
2019-04-14T06:06:26.733Z,79.00
2019-04-14T06:08:55.375Z,75.50
2019-04-14T06:11:24.292Z,77.20
2019-04-14T06:13:52.839Z,75.70
2019-04-14T06:16:21.428Z,75.80
2019-04-14T06:18:50.352Z,74.80
2019-04-14T06:21:19.339Z,72.00
2019-04-14T06:23:47.889Z,73.80
2019-04-14T06:26:16.707Z,71.20
2019-04-14T06:28:45.327Z,69.20
2019-04-14T06:31:25.035Z,68.20
2019-04-14T06:34:13.385Z,68.20
2019-04-14T06:39:27.676Z,68.80
2019-04-14T06:41:56.315Z,62.60
2019-04-14T06:44:24.854Z,62.40
2019-04-14T06:46:53.333Z,65.90
2019-04-14T06:49:21.955Z,64.70
2019-04-14T06:51:50.531Z,62.30
2019-04-14T06:54:19.106Z,57.10
2019-04-14T06:56:47.669Z,59.80
2019-04-14T06:59:16.377Z,56.50
2019-04-14T07:01:44.926Z,56.20
2019-04-14T07:04:13.516Z,56.90
2019-04-14T07:06:42.190Z,54.30
2019-04-14T07:09:10.783Z,55.00
2019-04-14T07:11:39.347Z,52.60
2019-04-14T07:14:07.919Z,54.30
2019-04-14T07:16:36.618Z,50.50
2019-04-14T07:19:05.231Z,48.00
2019-04-14T07:21:33.776Z,48.40
2019-04-14T07:24:02.355Z,47.50
2019-04-14T07:26:31.226Z,46.40
2019-04-14T07:28:59.783Z,44.30
2019-04-14T07:31:45.066Z,48.20
2019-04-14T07:34:21.823Z,45.40
2019-04-14T07:36:52.388Z,45.60
2019-04-14T07:39:34.410Z,44.90
2019-04-14T07:42:13.423Z,49.90
2019-04-14T07:45:21.235Z,43.20
2019-04-14T07:47:51.748Z,46.20
2019-04-14T07:50:38.247Z,47.20
2019-04-14T07:53:23.284Z,41.50
2019-04-14T07:56:07.228Z,43.70
2019-04-14T07:58:40.401Z,43.20
2019-04-14T08:01:10.591Z,42.80
2019-04-14T08:03:57.380Z,38.40
2019-04-14T08:06:25.932Z,42.00
2019-04-14T08:08:54.559Z,42.00
2019-04-14T08:11:23.272Z,41.30
2019-04-14T08:13:51.871Z,37.60
2019-04-14T08:16:20.700Z,38.10
2019-04-14T08:18:49.324Z,38.30
2019-04-14T08:21:18.174Z,40.00
2019-04-14T08:23:47.062Z,41.70
2019-04-14T08:26:15.682Z,41.20
2019-04-14T08:28:44.187Z,39.60
2019-04-14T08:31:12.820Z,38.00
2019-04-14T08:33:41.555Z,39.00
2019-04-14T08:36:10.250Z,39.50
2019-04-14T08:38:39.172Z,38.50
2019-04-14T08:41:07.761Z,40.90
2019-04-14T08:43:44.315Z,39.40
2019-04-14T08:46:15.446Z,38.20
2019-04-14T08:48:47.368Z,37.40
2019-04-14T08:51:18.445Z,39.20
2019-04-14T08:53:48.859Z,41.00
2019-04-14T08:56:20.069Z,41.00
2019-04-14T09:01:42.183Z,38.60
2019-04-14T09:04:15.115Z,35.50
2019-04-14T09:06:57.276Z,38.30
2019-04-14T09:09:36.815Z,36.80
2019-04-14T09:12:15.470Z,35.40
2019-04-14T09:14:37.539Z,39.10
2019-04-14T09:17:06.235Z,39.00
2019-04-14T09:19:35.459Z,35.70
2019-04-14T09:22:04.339Z,36.90
2019-04-14T09:24:32.916Z,38.30
2019-04-14T09:27:01.490Z,35.00
2019-04-14T09:29:30.054Z,38.20
2019-04-14T09:31:59.371Z,36.50
2019-04-14T09:34:27.927Z,37.40
2019-04-14T09:36:56.538Z,38.00
2019-04-14T09:39:25.208Z,39.60
2019-04-14T09:41:53.762Z,36.10
2019-04-14T09:44:22.333Z,36.60
2019-04-14T09:46:51.073Z,38.30
2019-04-14T09:49:20.095Z,39.50
2019-04-14T09:51:49.167Z,35.90
2019-04-14T09:54:17.709Z,37.20
2019-04-14T09:56:46.293Z,36.60
2019-04-14T09:59:15.127Z,37.60
2019-04-14T10:01:43.893Z,40.00
2019-04-14T10:04:12.702Z,38.90
2019-04-14T10:06:45.412Z,39.40
2019-04-14T10:09:17.452Z,36.30
2019-04-14T10:11:48.722Z,38.00
2019-04-14T10:14:16.222Z,38.40
2019-04-14T10:16:44.801Z,38.80
2019-04-14T10:19:13.367Z,39.10
2019-04-14T10:21:41.999Z,40.10
2019-04-14T10:24:10.578Z,41.30
2019-04-14T10:26:39.379Z,44.80
2019-04-14T10:29:07.981Z,42.80
2019-04-14T10:31:36.501Z,44.10
2019-04-14T10:34:05.074Z,46.70
2019-04-14T10:36:33.697Z,45.20
2019-04-14T10:39:02.189Z,45.70
2019-04-14T10:41:30.775Z,45.50
2019-04-14T10:43:59.855Z,44.60
2019-04-14T10:46:28.495Z,45.70
2019-04-14T10:48:57.538Z,45.30
2019-04-14T10:51:30.155Z,47.30
2019-04-14T10:53:56.639Z,47.40
2019-04-14T10:56:25.530Z,45.30
2019-04-14T10:58:54.215Z,46.90
2019-04-14T11:01:22.834Z,45.40
2019-04-14T11:03:51.429Z,46.50
2019-04-14T11:06:21.609Z,48.90
2019-04-14T11:08:50.295Z,47.90
2019-04-14T11:11:19.210Z,48.10
2019-04-14T11:13:47.781Z,47.40
2019-04-14T11:16:17.898Z,48.40
2019-04-14T11:18:46.410Z,47.70
2019-04-14T11:21:14.952Z,46.60
2019-04-14T11:23:43.894Z,48.90
2019-04-14T11:26:12.471Z,50.30
2019-04-14T11:28:41.188Z,48.60
2019-04-14T11:31:10.454Z,49.10
2019-04-14T11:33:47.739Z,50.90
2019-04-14T11:36:20.839Z,52.10
2019-04-14T11:39:02.888Z,53.70
2019-04-14T11:41:31.441Z,53.20
2019-04-14T11:44:00.242Z,53.20
2019-04-14T11:46:30.915Z,52.20
2019-04-14T11:49:00.071Z,53.40
2019-04-14T11:51:28.626Z,54.20
2019-04-14T11:53:57.545Z,53.10
2019-04-14T11:56:26.138Z,53.10
2019-04-14T11:58:54.685Z,52.40
2019-04-14T12:01:41.834Z,52.00
2019-04-14T12:04:27.431Z,53.40
2019-04-14T12:07:00.550Z,55.90
2019-04-14T12:09:36.864Z,55.10
2019-04-14T12:12:07.498Z,54.60
2019-04-14T12:14:36.391Z,56.70
2019-04-14T12:17:05.160Z,56.00
2019-04-14T12:19:33.728Z,57.00
2019-04-14T12:22:08.449Z,57.60
2019-04-14T12:24:32.998Z,57.20
2019-04-14T12:27:01.540Z,57.40
2019-04-14T12:29:30.568Z,57.30
2019-04-14T12:31:59.718Z,57.50
2019-04-14T12:34:28.221Z,59.10
2019-04-14T12:36:56.791Z,58.10
2019-04-14T12:39:25.400Z,59.30
2019-04-14T12:42:04.510Z,58.90
2019-04-14T12:44:40.190Z,58.80
2019-04-14T12:47:10.498Z,59.80
2019-04-14T12:49:53.973Z,60.90
2019-04-14T12:55:01.472Z,60.40
2019-04-14T12:57:31.816Z,59.80
2019-04-14T13:00:00.365Z,60.70
2019-04-14T13:02:30.558Z,60.70
2019-04-14T13:04:59.681Z,61.60
2019-04-14T13:07:28.202Z,61.50
2019-04-14T13:09:56.882Z,62.30
2019-04-14T13:12:25.491Z,62.60
2019-04-14T13:14:54.386Z,62.80
2019-04-14T13:17:23.279Z,63.10
2019-04-14T13:19:51.854Z,63.20
2019-04-14T13:22:32.937Z,63.00
2019-04-14T13:24:50.668Z,64.10
2019-04-14T13:27:19.251Z,63.90
2019-04-14T13:29:47.984Z,66.40
2019-04-14T13:32:16.523Z,66.20
2019-04-14T13:34:45.199Z,67.10
2019-04-14T13:37:13.932Z,66.60
2019-04-14T13:39:42.776Z,66.80
2019-04-14T13:42:11.407Z,65.70
2019-04-14T13:44:39.982Z,64.90
2019-04-14T13:47:08.450Z,64.30
2019-04-14T13:49:37.008Z,64.00
2019-04-14T13:52:05.723Z,65.20
2019-04-14T13:54:34.579Z,65.10
2019-04-14T13:57:03.155Z,65.70
2019-04-14T13:59:31.782Z,65.40
2019-04-14T14:02:00.411Z,68.40
2019-04-14T14:04:29.102Z,66.30
2019-04-14T14:06:57.579Z,65.90
2019-04-14T14:09:26.335Z,69.10
2019-04-14T14:11:56.516Z,69.90
2019-04-14T14:14:26.787Z,68.90
2019-04-14T14:16:59.868Z,73.00
2019-04-14T14:19:33.048Z,71.60
2019-04-14T14:22:03.628Z,71.40
2019-04-14T14:24:50.119Z,74.90
2019-04-14T14:27:18.753Z,73.10
2019-04-14T14:29:47.713Z,75.20
2019-04-14T14:32:20.958Z,73.70
2019-04-14T14:34:49.510Z,73.10
2019-04-14T14:37:18.373Z,74.40
2019-04-14T14:39:46.985Z,77.50
2019-04-14T14:42:15.536Z,75.30
2019-04-14T14:44:45.959Z,72.60
2019-04-14T14:47:16.339Z,73.40
2019-04-14T14:52:34.239Z,72.40
2019-04-14T14:55:03.086Z,72.80
2019-04-14T14:57:31.828Z,74.40
2019-04-14T15:00:00.366Z,75.10
2019-04-14T15:02:29.067Z,74.20
2019-04-14T15:04:57.875Z,73.90
2019-04-14T15:07:45.846Z,73.50
2019-04-14T15:10:13.711Z,72.20
2019-04-14T15:12:42.375Z,74.50
2019-04-14T15:15:11.048Z,75.90
2019-04-14T15:17:39.624Z,75.80
2019-04-14T15:20:08.306Z,78.60
2019-04-14T15:22:36.849Z,77.60
2019-04-14T15:25:05.996Z,75.60
2019-04-14T15:27:34.704Z,76.10
2019-04-14T15:30:05.159Z,76.00
2019-04-14T15:32:33.739Z,76.60
2019-04-14T15:35:02.348Z,76.90
2019-04-14T15:37:30.895Z,76.60
2019-04-14T15:39:59.537Z,76.70
2019-04-14T15:42:28.070Z,78.50
2019-04-14T15:44:56.636Z,77.70
2019-04-14T15:47:25.289Z,76.40
2019-04-14T15:49:53.835Z,78.20
2019-04-14T15:52:22.397Z,76.80
2019-04-14T15:54:50.950Z,77.60
2019-04-14T15:57:37.236Z,79.00
2019-04-14T16:00:25.072Z,76.80
2019-04-14T16:03:11.261Z,78.70
2019-04-14T16:05:45.832Z,76.60
2019-04-14T16:08:27.739Z,77.40
2019-04-14T16:11:03.803Z,78.60
2019-04-14T16:13:37.328Z,76.80
2019-04-14T16:19:15.712Z,76.30
2019-04-14T16:21:44.369Z,77.00
2019-04-14T16:24:14.570Z,78.50
2019-04-14T16:29:38.260Z,77.50
2019-04-14T16:32:08.778Z,77.40
2019-04-14T16:34:39.047Z,76.70
2019-04-14T16:37:07.709Z,76.90
2019-04-14T16:39:36.835Z,77.00
2019-04-14T16:42:05.513Z,77.60
2019-04-14T16:44:34.096Z,77.90
2019-04-14T16:47:03.039Z,76.60
2019-04-14T16:49:31.847Z,77.10
2019-04-14T16:52:02.364Z,76.90
2019-04-14T16:54:32.896Z,76.30
2019-04-14T16:57:15.398Z,76.00
2019-04-14T16:59:43.934Z,77.50
2019-04-14T17:02:12.544Z,77.20
2019-04-14T17:05:00.444Z,78.40
2019-04-14T17:07:29.105Z,78.10
2019-04-14T17:09:57.818Z,79.30
2019-04-14T17:12:26.474Z,79.30
2019-04-14T17:14:56.701Z,80.30
2019-04-14T17:17:43.475Z,79.60
2019-04-14T17:20:29.937Z,79.90
2019-04-14T17:23:16.696Z,80.00
2019-04-14T17:28:38.564Z,79.40
2019-04-14T17:31:25.123Z,80.50
2019-04-14T17:34:12.053Z,80.30
2019-04-14T17:39:37.103Z,79.90
2019-04-14T17:42:26.034Z,81.10
2019-04-14T17:50:44.507Z,80.20
2019-04-14T17:53:14.709Z,80.60
2019-04-14T17:58:39.522Z,81.50
2019-04-14T18:01:09.658Z,80.70
2019-04-14T18:03:51.572Z,82.60
2019-04-14T18:06:27.683Z,82.30
2019-04-14T18:09:10.233Z,81.80
2019-04-14T18:14:27.880Z,82.90
2019-04-14T18:19:51.738Z,82.40
2019-04-14T18:22:20.388Z,82.90
2019-04-14T18:24:48.936Z,82.80
2019-04-14T18:27:17.827Z,83.50
2019-04-14T18:29:51.144Z,82.90
2019-04-14T18:32:21.391Z,83.40
2019-04-14T18:37:52.404Z,82.60
2019-04-14T18:40:25.054Z,82.90
2019-04-14T18:43:07.676Z,83.00
2019-04-14T18:45:55.684Z,83.20
2019-04-14T18:48:25.180Z,83.20
2019-04-14T18:50:58.425Z,83.40
2019-04-14T18:53:29.056Z,83.70
2019-04-14T18:59:10.621Z,84.50
2019-04-14T19:01:40.868Z,84.30
2019-04-14T19:04:09.669Z,83.70
2019-04-14T19:06:38.361Z,84.00
2019-04-14T19:09:08.555Z,83.60
2019-04-14T19:11:50.933Z,84.20
2019-04-14T19:14:23.735Z,83.80
2019-04-14T19:16:53.959Z,84.50
2019-04-14T19:19:23.977Z,84.40
2019-04-14T19:21:52.588Z,83.40
2019-04-14T19:24:21.156Z,83.50
2019-04-14T19:26:49.771Z,83.00
2019-04-14T19:29:18.385Z,82.80
2019-04-14T19:31:47.345Z,83.00
2019-04-14T19:34:16.210Z,82.90
2019-04-14T19:36:44.920Z,83.10
2019-04-14T19:39:13.896Z,83.90
2019-04-14T19:41:42.737Z,83.90
2019-04-14T19:44:12.952Z,84.80
2019-04-14T19:46:41.742Z,83.80
2019-04-14T19:49:10.534Z,84.50
2019-04-14T19:51:39.127Z,84.60
2019-04-14T19:54:07.708Z,84.40
2019-04-14T19:56:36.495Z,84.80
2019-04-14T19:59:06.726Z,85.00
2019-04-14T20:01:35.409Z,84.90
2019-04-14T20:04:04.052Z,85.40
2019-04-14T20:06:32.910Z,85.40
2019-04-14T20:09:01.600Z,86.00
2019-04-14T20:11:30.148Z,85.10
2019-04-14T20:13:58.743Z,84.30
2019-04-14T20:16:45.190Z,84.40
2019-04-14T20:19:27.463Z,84.30
2019-04-14T20:21:57.655Z,84.80
2019-04-14T20:27:19.450Z,84.40
2019-04-14T20:29:52.454Z,83.80
2019-04-14T20:32:22.640Z,84.60
2019-04-14T20:34:51.330Z,84.80
2019-04-14T20:37:19.907Z,85.20
2019-04-14T20:39:48.511Z,85.50
2019-04-14T20:42:17.083Z,84.80
2019-04-14T20:44:45.735Z,85.30
2019-04-14T20:47:14.334Z,85.30
2019-04-14T20:49:42.951Z,85.10
2019-04-14T20:52:11.601Z,85.50
2019-04-14T20:54:41.663Z,85.90
2019-04-14T20:57:10.207Z,86.40
2019-04-14T20:59:39.093Z,86.20
2019-04-14T21:02:17.981Z,86.20
2019-04-14T21:04:57.258Z,86.40
2019-04-14T21:07:42.235Z,87.10
2019-04-14T21:10:12.581Z,86.80
2019-04-14T21:12:42.776Z,86.90
2019-04-14T21:15:22.298Z,87.10
2019-04-14T21:17:58.242Z,87.20
2019-04-14T21:20:34.452Z,87.70
2019-04-14T21:23:10.388Z,87.80
2019-04-14T21:28:37.023Z,87.90
2019-04-14T21:31:16.255Z,89.00
2019-04-14T21:33:49.467Z,88.80
2019-04-14T21:36:39.079Z,88.90
2019-04-14T21:39:12.972Z,89.50
2019-04-14T21:41:43.189Z,88.80
2019-04-14T21:44:11.731Z,88.80
2019-04-14T21:46:40.281Z,89.10
2019-04-14T21:49:08.935Z,89.00
2019-04-14T21:51:39.191Z,88.30
2019-04-14T21:54:08.525Z,88.80
2019-04-14T21:56:37.182Z,88.70
2019-04-14T21:59:07.362Z,89.10
2019-04-14T22:01:54.692Z,89.10
2019-04-14T22:04:40.239Z,88.40
2019-04-14T22:07:27.039Z,88.60
2019-04-14T22:09:58.307Z,88.40
2019-04-14T22:12:27.024Z,89.00
2019-04-14T22:14:55.662Z,89.40
2019-04-14T22:17:24.275Z,89.10
2019-04-14T22:19:53.159Z,89.00
2019-04-14T22:22:21.748Z,89.20
2019-04-14T22:24:50.710Z,88.70
2019-04-14T22:27:19.595Z,89.00
2019-04-14T22:29:48.181Z,88.80
2019-04-14T22:32:16.794Z,88.70
2019-04-14T22:34:45.414Z,88.80
2019-04-14T22:37:13.982Z,89.60
2019-04-14T22:39:42.520Z,89.00
2019-04-14T22:42:11.077Z,88.70
2019-04-14T22:44:39.712Z,89.20
2019-04-14T22:47:08.266Z,89.20
2019-04-14T22:49:36.911Z,89.40
2019-04-14T22:52:05.593Z,89.40
2019-04-14T22:54:34.165Z,89.40
2019-04-14T22:57:02.816Z,89.10
2019-04-14T22:59:31.378Z,89.20
2019-04-14T23:02:07.743Z,89.10
2019-04-14T23:04:52.928Z,89.00
2019-04-14T23:07:39.567Z,89.20
2019-04-14T23:10:10.391Z,89.10
2019-04-14T23:12:46.607Z,89.00
2019-04-14T23:15:16.803Z,89.50
2019-04-14T23:18:03.357Z,89.30
2019-04-14T23:20:39.196Z,89.00
2019-04-14T23:23:09.483Z,89.20
2019-04-14T23:25:38.048Z,89.70
2019-04-14T23:28:06.648Z,89.40
2019-04-14T23:30:35.306Z,89.20
2019-04-14T23:33:03.917Z,89.40
2019-04-14T23:35:32.504Z,89.50
2019-04-14T23:38:01.196Z,90.40
2019-04-14T23:40:29.804Z,90.60
2019-04-14T23:42:58.690Z,90.80
2019-04-14T23:45:27.327Z,90.20
2019-04-14T23:47:55.957Z,90.70
2019-04-14T23:50:24.422Z,91.00
2019-04-14T23:52:53.066Z,91.10
2019-04-14T23:55:22.013Z,90.60
2019-04-14T23:57:50.617Z,90.60
